createdAt,value
2023-10-26T00:04:13.613Z,1.40
2023-10-26T00:10:56.498Z,1.75
2023-10-26T00:17:39.785Z,1.30
2023-10-26T00:24:22.322Z,1.33
2023-10-26T00:31:04.789Z,1.17
2023-10-26T00:37:47.241Z,1.10
2023-10-26T00:44:29.714Z,1.20
2023-10-26T00:51:13.025Z,1.35
2023-10-26T00:57:56.940Z,1.45
2023-10-26T01:04:39.516Z,1.25
2023-10-26T01:11:22.955Z,1.88
2023-10-26T01:18:05.501Z,1.40
2023-10-26T01:24:48.385Z,1.25
2023-10-26T01:31:30.970Z,1.40
2023-10-26T01:38:14.181Z,0.98
2023-10-26T01:44:56.560Z,1.20
2023-10-26T01:51:40.000Z,1.00
2023-10-26T01:58:22.327Z,1.23
2023-10-26T02:05:05.188Z,1.20
2023-10-26T02:11:47.797Z,1.40
2023-10-26T02:18:33.022Z,1.33
2023-10-26T02:25:16.194Z,1.38
2023-10-26T02:31:58.693Z,1.10
2023-10-26T02:38:41.230Z,1.10
2023-10-26T02:45:23.452Z,1.20
2023-10-26T02:52:06.297Z,2.00
2023-10-26T02:58:48.532Z,1.85
2023-10-26T03:05:31.404Z,2.17
2023-10-26T03:12:13.825Z,1.80
2023-10-26T03:18:56.109Z,2.45
2023-10-26T03:25:38.689Z,2.40
2023-10-26T03:32:21.154Z,2.33
2023-10-26T03:39:03.908Z,1.83
2023-10-26T03:45:46.605Z,2.17
2023-10-26T03:52:28.966Z,1.80
2023-10-26T03:59:11.591Z,2.10
2023-10-26T04:05:54.088Z,2.20
2023-10-26T04:12:36.552Z,2.47
2023-10-26T04:19:18.997Z,1.80
2023-10-26T04:26:01.476Z,2.08
2023-10-26T04:32:43.986Z,2.00
2023-10-26T04:39:26.547Z,2.50
2023-10-26T04:46:11.378Z,2.20
2023-10-26T04:52:54.233Z,1.70
2023-10-26T04:59:36.660Z,2.45
2023-10-26T05:06:19.346Z,2.80
2023-10-26T05:13:01.755Z,2.25
2023-10-26T05:19:44.223Z,2.33
2023-10-26T05:26:26.738Z,2.40
2023-10-26T05:33:09.437Z,3.78
2023-10-26T05:39:51.931Z,2.45
2023-10-26T05:46:34.909Z,2.67
2023-10-26T05:53:17.275Z,2.28
2023-10-26T05:59:59.727Z,2.22
2023-10-26T06:06:42.071Z,2.67
2023-10-26T06:13:25.165Z,2.47
2023-10-26T06:20:08.546Z,2.58
2023-10-26T06:26:51.327Z,2.38
2023-10-26T06:33:34.172Z,3.08
2023-10-26T06:40:16.585Z,2.92
2023-10-26T06:46:58.960Z,2.80
2023-10-26T06:53:41.282Z,2.42
2023-10-26T07:00:23.717Z,2.28
2023-10-26T07:07:06.217Z,2.80
2023-10-26T07:13:48.619Z,2.80
2023-10-26T07:20:31.027Z,2.55
2023-10-26T07:27:19.224Z,2.20
2023-10-26T07:34:01.634Z,2.45
2023-10-26T07:40:54.643Z,2.90
2023-10-26T07:47:37.147Z,2.88
2023-10-26T07:54:19.586Z,2.28
2023-10-26T08:01:09.848Z,1.70
2023-10-26T08:07:53.333Z,2.20
2023-10-26T08:16:09.064Z,2.75
2023-10-26T08:21:38.058Z,2.47
2023-10-26T08:28:20.808Z,1.92
2023-10-26T08:35:04.242Z,2.78
2023-10-26T08:41:51.225Z,3.08
2023-10-26T08:48:35.390Z,3.42
2023-10-26T08:55:18.198Z,2.55
2023-10-26T09:02:00.987Z,2.72
2023-10-26T09:08:43.998Z,2.85
2023-10-26T09:15:26.656Z,2.35
2023-10-26T09:22:13.759Z,2.22
2023-10-26T09:28:57.118Z,2.35
2023-10-26T09:35:39.663Z,2.35
2023-10-26T09:42:22.115Z,2.50
2023-10-26T09:49:04.977Z,3.03
2023-10-26T09:55:49.985Z,2.38
2023-10-26T10:02:32.569Z,3.30
2023-10-26T10:09:17.244Z,2.92
2023-10-26T10:15:59.795Z,3.45
2023-10-26T10:22:46.281Z,2.60
2023-10-26T10:29:28.887Z,2.78
2023-10-26T10:36:11.276Z,3.10
2023-10-26T10:42:53.803Z,2.78
2023-10-26T10:49:36.344Z,2.70
2023-10-26T10:56:18.882Z,2.72
2023-10-26T11:03:01.327Z,2.20
2023-10-26T11:09:46.267Z,2.40
2023-10-26T11:16:28.789Z,2.08
2023-10-26T11:23:13.211Z,1.80
2023-10-26T11:30:05.622Z,2.10
2023-10-26T11:36:48.467Z,1.60
2023-10-26T11:43:35.638Z,2.58
2023-10-26T11:50:28.645Z,5.63
2023-10-26T11:57:11.032Z,2.33
2023-10-26T12:03:53.518Z,1.92
2023-10-26T12:10:36.183Z,1.50
2023-10-26T12:17:18.918Z,1.77
2023-10-26T12:24:01.429Z,1.50
2023-10-26T12:30:44.084Z,1.80
2023-10-26T12:37:26.844Z,1.40
2023-10-26T12:44:09.666Z,1.73
2023-10-26T12:50:52.356Z,1.48
2023-10-26T12:57:34.967Z,1.30
2023-10-26T13:04:17.871Z,1.30
2023-10-26T13:11:00.465Z,1.70
2023-10-26T13:17:43.043Z,1.83
2023-10-26T13:24:25.414Z,1.80
2023-10-26T13:31:08.067Z,3.45
2023-10-26T13:37:51.441Z,3.33
2023-10-26T13:44:33.910Z,2.30
2023-10-26T13:51:20.049Z,3.10
2023-10-26T13:58:03.016Z,3.17
2023-10-26T14:04:46.185Z,2.85
2023-10-26T14:11:30.457Z,2.42
2023-10-26T14:18:12.910Z,3.40
2023-10-26T14:24:55.847Z,3.30
2023-10-26T14:31:38.411Z,3.30
2023-10-26T14:38:20.956Z,3.83
2023-10-26T14:45:03.742Z,3.58
2023-10-26T14:51:46.225Z,3.38
2023-10-26T14:58:29.050Z,3.45
2023-10-26T15:05:11.426Z,2.90
2023-10-26T15:11:57.009Z,2.70
2023-10-26T15:18:41.357Z,2.70
2023-10-26T15:25:24.288Z,2.45
2023-10-26T15:32:07.228Z,2.38
2023-10-26T15:38:50.126Z,2.40
2023-10-26T15:45:33.052Z,2.10
2023-10-26T15:52:18.734Z,1.83
2023-10-26T15:59:01.111Z,3.38
2023-10-26T16:05:44.028Z,2.75
2023-10-26T16:12:27.034Z,1.70
2023-10-26T16:19:10.370Z,2.13
2023-10-26T16:25:54.594Z,1.83
2023-10-26T16:32:37.420Z,2.33
2023-10-26T16:39:20.259Z,2.58
2023-10-26T16:46:03.193Z,1.95
2023-10-26T16:52:46.731Z,2.95
2023-10-26T16:59:29.557Z,2.28
2023-10-26T17:06:12.121Z,3.15
2023-10-26T17:12:54.919Z,2.05
2023-10-26T17:19:37.320Z,2.95
2023-10-26T17:26:20.074Z,3.30
2023-10-26T17:33:02.690Z,2.58
2023-10-26T17:39:45.513Z,3.55
2023-10-26T17:46:28.711Z,3.90
2023-10-26T17:53:11.201Z,3.80
2023-10-26T17:59:53.738Z,3.55
2023-10-26T18:06:36.552Z,4.30
2023-10-26T18:13:19.270Z,3.92
2023-10-26T18:20:01.655Z,3.22
2023-10-26T18:26:44.080Z,3.47
2023-10-26T18:33:29.330Z,3.20
2023-10-26T18:40:12.343Z,3.33
2023-10-26T18:46:59.517Z,3.03
2023-10-26T18:53:42.226Z,3.22
2023-10-26T19:00:27.281Z,3.35
2023-10-26T19:07:14.447Z,3.47
2023-10-26T19:14:02.690Z,3.10
2023-10-26T19:20:45.505Z,3.15
2023-10-26T19:27:30.556Z,3.40
2023-10-26T19:34:13.016Z,3.10
2023-10-26T19:40:57.722Z,3.45
2023-10-26T19:47:40.875Z,3.70
2023-10-26T19:54:26.905Z,3.20
2023-10-26T20:01:15.874Z,3.38
2023-10-26T20:07:58.506Z,3.97
2023-10-26T20:14:42.103Z,3.78
2023-10-26T20:21:24.484Z,3.60
2023-10-26T20:28:07.066Z,4.10
2023-10-26T20:34:49.624Z,4.25
2023-10-26T20:41:32.144Z,4.20
2023-10-26T20:48:14.727Z,4.43
2023-10-26T20:54:57.302Z,4.82
2023-10-26T21:01:41.076Z,4.85
2023-10-26T21:08:23.715Z,4.35
2023-10-26T21:15:06.936Z,5.72
2023-10-26T21:21:49.480Z,4.43
2023-10-26T21:28:32.334Z,4.18
2023-10-26T21:35:14.684Z,4.72
2023-10-26T21:41:57.104Z,3.67
2023-10-26T21:48:40.507Z,3.80
2023-10-26T21:55:22.931Z,3.63
2023-10-26T22:02:08.628Z,4.35
2023-10-26T22:08:51.003Z,4.05
2023-10-26T22:15:33.518Z,3.70
2023-10-26T22:22:16.107Z,4.68
2023-10-26T22:28:58.537Z,4.13
2023-10-26T22:35:41.040Z,3.92
2023-10-26T22:42:23.821Z,4.45
2023-10-26T22:49:07.147Z,4.07
2023-10-26T22:55:51.131Z,4.03
2023-10-26T23:02:33.594Z,3.90
2023-10-26T23:09:16.672Z,4.07
2023-10-26T23:15:59.240Z,3.72
2023-10-26T23:22:41.707Z,4.13
2023-10-26T23:29:25.869Z,3.58
2023-10-26T23:36:12.857Z,4.13
2023-10-26T23:42:55.976Z,3.97
2023-10-26T23:49:38.659Z,3.67
2023-10-26T23:56:21.025Z,3.80
